sensor_id;sensor_type;location;lat;lon;timestamp;temperature;humidity
16846;DHT22;8539;53.188;8.696;2023-03-14T00:01:14;10.60;99.90
16846;DHT22;8539;53.188;8.696;2023-03-14T00:03:41;10.60;99.90
16846;DHT22;8539;53.188;8.696;2023-03-14T00:06:08;10.60;99.90
16846;DHT22;8539;53.188;8.696;2023-03-14T00:08:35;10.60;99.90
16846;DHT22;8539;53.188;8.696;2023-03-14T00:11:09;10.70;99.90
16846;DHT22;8539;53.188;8.696;2023-03-14T00:13:36;10.70;99.90
16846;DHT22;8539;53.188;8.696;2023-03-14T00:16:04;10.70;99.90
16846;DHT22;8539;53.188;8.696;2023-03-14T00:18:31;10.70;99.90
16846;DHT22;8539;53.188;8.696;2023-03-14T00:21:02;10.70;99.90
16846;DHT22;8539;53.188;8.696;2023-03-14T00:23:30;10.70;99.90
16846;DHT22;8539;53.188;8.696;2023-03-14T00:26:01;10.70;99.90
16846;DHT22;8539;53.188;8.696;2023-03-14T00:28:28;10.70;99.90
16846;DHT22;8539;53.188;8.696;2023-03-14T00:30:54;10.70;99.90
16846;DHT22;8539;53.188;8.696;2023-03-14T00:33:21;10.80;99.90
16846;DHT22;8539;53.188;8.696;2023-03-14T00:36:01;10.80;99.90
16846;DHT22;8539;53.188;8.696;2023-03-14T00:38:28;10.80;99.90
16846;DHT22;8539;53.188;8.696;2023-03-14T00:40:54;10.80;99.90
16846;DHT22;8539;53.188;8.696;2023-03-14T00:43:21;10.80;99.90
16846;DHT22;8539;53.188;8.696;2023-03-14T00:45:51;10.80;99.90
16846;DHT22;8539;53.188;8.696;2023-03-14T00:48:19;10.90;99.90
16846;DHT22;8539;53.188;8.696;2023-03-14T00:50:46;10.80;99.90
16846;DHT22;8539;53.188;8.696;2023-03-14T00:53:12;10.90;99.90
16846;DHT22;8539;53.188;8.696;2023-03-14T00:55:40;10.90;99.90
16846;DHT22;8539;53.188;8.696;2023-03-14T00:58:06;10.90;99.90
16846;DHT22;8539;53.188;8.696;2023-03-14T01:00:33;10.80;99.90
16846;DHT22;8539;53.188;8.696;2023-03-14T01:02:59;10.80;99.90
16846;DHT22;8539;53.188;8.696;2023-03-14T01:05:25;10.80;99.90
16846;DHT22;8539;53.188;8.696;2023-03-14T01:07:51;10.90;99.90
16846;DHT22;8539;53.188;8.696;2023-03-14T01:10:17;10.90;99.90
16846;DHT22;8539;53.188;8.696;2023-03-14T01:12:44;10.80;99.90
16846;DHT22;8539;53.188;8.696;2023-03-14T01:15:10;10.80;99.90
16846;DHT22;8539;53.188;8.696;2023-03-14T01:17:36;10.80;99.90
16846;DHT22;8539;53.188;8.696;2023-03-14T01:20:07;10.70;99.90
16846;DHT22;8539;53.188;8.696;2023-03-14T01:22:37;10.80;99.90
16846;DHT22;8539;53.188;8.696;2023-03-14T01:25:15;10.80;99.90
16846;DHT22;8539;53.188;8.696;2023-03-14T01:27:42;10.80;99.90
16846;DHT22;8539;53.188;8.696;2023-03-14T01:30:10;10.80;99.90
16846;DHT22;8539;53.188;8.696;2023-03-14T01:32:36;10.70;99.90
16846;DHT22;8539;53.188;8.696;2023-03-14T01:35:03;10.70;99.90
16846;DHT22;8539;53.188;8.696;2023-03-14T01:37:30;10.70;99.90
16846;DHT22;8539;53.188;8.696;2023-03-14T01:39:56;10.70;99.90
16846;DHT22;8539;53.188;8.696;2023-03-14T01:42:22;10.70;99.90
16846;DHT22;8539;53.188;8.696;2023-03-14T01:44:57;10.70;99.90
16846;DHT22;8539;53.188;8.696;2023-03-14T01:47:23;10.70;99.90
16846;DHT22;8539;53.188;8.696;2023-03-14T01:50:09;10.70;99.90
16846;DHT22;8539;53.188;8.696;2023-03-14T01:52:42;10.80;99.90
16846;DHT22;8539;53.188;8.696;2023-03-14T01:55:12;10.80;99.90
16846;DHT22;8539;53.188;8.696;2023-03-14T01:57:49;10.80;99.90
16846;DHT22;8539;53.188;8.696;2023-03-14T02:00:18;10.70;99.90
16846;DHT22;8539;53.188;8.696;2023-03-14T02:02:58;10.70;99.90
16846;DHT22;8539;53.188;8.696;2023-03-14T02:05:29;10.70;99.90
16846;DHT22;8539;53.188;8.696;2023-03-14T02:07:59;10.70;99.90
16846;DHT22;8539;53.188;8.696;2023-03-14T02:10:32;10.70;99.90
16846;DHT22;8539;53.188;8.696;2023-03-14T02:13:01;10.70;99.90
16846;DHT22;8539;53.188;8.696;2023-03-14T02:15:28;10.70;99.90
16846;DHT22;8539;53.188;8.696;2023-03-14T02:17:57;10.70;99.90
16846;DHT22;8539;53.188;8.696;2023-03-14T02:23:04;10.70;99.90
16846;DHT22;8539;53.188;8.696;2023-03-14T02:25:56;10.70;99.90
16846;DHT22;8539;53.188;8.696;2023-03-14T02:28:21;10.70;99.90
16846;DHT22;8539;53.188;8.696;2023-03-14T02:30:48;10.80;99.90
16846;DHT22;8539;53.188;8.696;2023-03-14T02:33:16;10.80;99.90
16846;DHT22;8539;53.188;8.696;2023-03-14T02:35:59;10.80;99.90
16846;DHT22;8539;53.188;8.696;2023-03-14T02:38:55;10.80;99.90
16846;DHT22;8539;53.188;8.696;2023-03-14T02:41:21;10.90;99.90
16846;DHT22;8539;53.188;8.696;2023-03-14T02:43:47;10.90;99.90
16846;DHT22;8539;53.188;8.696;2023-03-14T02:46:20;10.90;99.90
16846;DHT22;8539;53.188;8.696;2023-03-14T02:49:08;10.90;99.90
16846;DHT22;8539;53.188;8.696;2023-03-14T02:51:36;10.90;99.90
16846;DHT22;8539;53.188;8.696;2023-03-14T02:54:02;10.90;99.90
16846;DHT22;8539;53.188;8.696;2023-03-14T02:56:28;10.90;99.90
16846;DHT22;8539;53.188;8.696;2023-03-14T02:58:54;10.90;99.90
16846;DHT22;8539;53.188;8.696;2023-03-14T03:01:21;10.90;99.90
16846;DHT22;8539;53.188;8.696;2023-03-14T03:03:49;10.90;99.90
16846;DHT22;8539;53.188;8.696;2023-03-14T03:06:15;10.90;99.90
16846;DHT22;8539;53.188;8.696;2023-03-14T03:08:41;10.90;99.90
16846;DHT22;8539;53.188;8.696;2023-03-14T03:11:08;10.90;99.90
16846;DHT22;8539;53.188;8.696;2023-03-14T03:13:34;10.90;99.90
16846;DHT22;8539;53.188;8.696;2023-03-14T03:16:01;10.90;99.90
16846;DHT22;8539;53.188;8.696;2023-03-14T03:18:27;10.90;99.90
16846;DHT22;8539;53.188;8.696;2023-03-14T03:20:53;10.80;99.90
16846;DHT22;8539;53.188;8.696;2023-03-14T03:23:19;10.80;99.90
16846;DHT22;8539;53.188;8.696;2023-03-14T03:25:49;10.80;99.90
16846;DHT22;8539;53.188;8.696;2023-03-14T03:28:16;10.80;99.90
16846;DHT22;8539;53.188;8.696;2023-03-14T03:30:42;10.70;99.90
16846;DHT22;8539;53.188;8.696;2023-03-14T03:33:10;10.70;99.90
16846;DHT22;8539;53.188;8.696;2023-03-14T03:35:48;10.70;99.90
16846;DHT22;8539;53.188;8.696;2023-03-14T03:38:15;10.70;99.90
16846;DHT22;8539;53.188;8.696;2023-03-14T03:40:42;10.70;99.90
16846;DHT22;8539;53.188;8.696;2023-03-14T03:43:08;10.70;99.90
16846;DHT22;8539;53.188;8.696;2023-03-14T03:45:34;10.80;99.90
16846;DHT22;8539;53.188;8.696;2023-03-14T03:48:00;10.80;99.90
16846;DHT22;8539;53.188;8.696;2023-03-14T03:50:27;10.80;99.90
16846;DHT22;8539;53.188;8.696;2023-03-14T03:52:53;10.80;99.90
16846;DHT22;8539;53.188;8.696;2023-03-14T03:55:19;10.70;99.90
16846;DHT22;8539;53.188;8.696;2023-03-14T03:57:45;10.60;99.90
16846;DHT22;8539;53.188;8.696;2023-03-14T04:00:12;10.50;99.90
16846;DHT22;8539;53.188;8.696;2023-03-14T04:02:39;10.40;99.90
16846;DHT22;8539;53.188;8.696;2023-03-14T04:05:06;10.30;99.90
16846;DHT22;8539;53.188;8.696;2023-03-14T04:07:32;10.10;99.90
16846;DHT22;8539;53.188;8.696;2023-03-14T04:09:58;10.10;99.90
16846;DHT22;8539;53.188;8.696;2023-03-14T04:12:25;10.00;99.90
16846;DHT22;8539;53.188;8.696;2023-03-14T04:14:51;9.90;99.90
16846;DHT22;8539;53.188;8.696;2023-03-14T04:17:17;9.80;99.90
16846;DHT22;8539;53.188;8.696;2023-03-14T04:19:44;9.70;99.90
16846;DHT22;8539;53.188;8.696;2023-03-14T04:22:10;9.70;99.90
16846;DHT22;8539;53.188;8.696;2023-03-14T04:24:36;9.60;99.90
16846;DHT22;8539;53.188;8.696;2023-03-14T04:27:02;9.60;99.90
16846;DHT22;8539;53.188;8.696;2023-03-14T04:29:28;9.50;99.90
16846;DHT22;8539;53.188;8.696;2023-03-14T04:31:55;9.50;99.90
16846;DHT22;8539;53.188;8.696;2023-03-14T04:34:21;9.50;99.90
16846;DHT22;8539;53.188;8.696;2023-03-14T04:36:47;9.50;99.90
16846;DHT22;8539;53.188;8.696;2023-03-14T04:39:13;9.50;99.90
16846;DHT22;8539;53.188;8.696;2023-03-14T04:41:40;9.50;99.90
16846;DHT22;8539;53.188;8.696;2023-03-14T04:44:06;9.50;99.90
16846;DHT22;8539;53.188;8.696;2023-03-14T04:46:32;9.40;99.90
16846;DHT22;8539;53.188;8.696;2023-03-14T04:48:58;9.50;99.90
16846;DHT22;8539;53.188;8.696;2023-03-14T04:51:24;9.40;99.90
16846;DHT22;8539;53.188;8.696;2023-03-14T04:53:53;9.50;99.90
16846;DHT22;8539;53.188;8.696;2023-03-14T04:56:20;9.50;99.90
16846;DHT22;8539;53.188;8.696;2023-03-14T04:58:47;9.50;99.90
16846;DHT22;8539;53.188;8.696;2023-03-14T05:01:13;9.50;99.90
16846;DHT22;8539;53.188;8.696;2023-03-14T05:03:39;9.50;99.90
16846;DHT22;8539;53.188;8.696;2023-03-14T05:06:05;9.60;99.90
16846;DHT22;8539;53.188;8.696;2023-03-14T05:08:31;9.60;99.90
16846;DHT22;8539;53.188;8.696;2023-03-14T05:10:58;9.60;99.90
16846;DHT22;8539;53.188;8.696;2023-03-14T05:13:24;9.60;99.90
16846;DHT22;8539;53.188;8.696;2023-03-14T05:15:50;9.60;99.90
16846;DHT22;8539;53.188;8.696;2023-03-14T05:18:17;9.60;99.90
16846;DHT22;8539;53.188;8.696;2023-03-14T05:20:43;9.60;99.90
16846;DHT22;8539;53.188;8.696;2023-03-14T05:23:10;9.50;99.90
16846;DHT22;8539;53.188;8.696;2023-03-14T05:25:36;9.50;99.90
16846;DHT22;8539;53.188;8.696;2023-03-14T05:28:02;9.50;99.90
16846;DHT22;8539;53.188;8.696;2023-03-14T05:30:29;9.40;99.90
16846;DHT22;8539;53.188;8.696;2023-03-14T05:32:56;9.40;99.90
16846;DHT22;8539;53.188;8.696;2023-03-14T05:35:22;9.40;99.90
16846;DHT22;8539;53.188;8.696;2023-03-14T05:37:48;9.40;99.90
16846;DHT22;8539;53.188;8.696;2023-03-14T05:40:14;9.30;99.90
16846;DHT22;8539;53.188;8.696;2023-03-14T05:42:40;9.30;99.90
16846;DHT22;8539;53.188;8.696;2023-03-14T05:45:07;9.30;99.90
16846;DHT22;8539;53.188;8.696;2023-03-14T05:47:33;9.30;99.90
16846;DHT22;8539;53.188;8.696;2023-03-14T05:49:59;9.30;99.90
16846;DHT22;8539;53.188;8.696;2023-03-14T05:52:26;9.40;99.90
16846;DHT22;8539;53.188;8.696;2023-03-14T05:54:52;9.40;99.90
16846;DHT22;8539;53.188;8.696;2023-03-14T05:57:18;9.40;99.90
16846;DHT22;8539;53.188;8.696;2023-03-14T05:59:44;9.40;99.90
16846;DHT22;8539;53.188;8.696;2023-03-14T06:02:10;9.40;99.90
16846;DHT22;8539;53.188;8.696;2023-03-14T06:04:37;9.40;99.90
16846;DHT22;8539;53.188;8.696;2023-03-14T06:07:03;9.40;99.90
16846;DHT22;8539;53.188;8.696;2023-03-14T06:09:29;9.40;99.90
16846;DHT22;8539;53.188;8.696;2023-03-14T06:11:55;9.40;99.90
16846;DHT22;8539;53.188;8.696;2023-03-14T06:14:21;9.50;99.90
16846;DHT22;8539;53.188;8.696;2023-03-14T06:16:47;9.50;99.90
16846;DHT22;8539;53.188;8.696;2023-03-14T06:19:15;9.50;99.90
16846;DHT22;8539;53.188;8.696;2023-03-14T06:21:41;9.50;99.90
16846;DHT22;8539;53.188;8.696;2023-03-14T06:24:07;9.50;99.90
16846;DHT22;8539;53.188;8.696;2023-03-14T06:26:33;9.50;99.90
16846;DHT22;8539;53.188;8.696;2023-03-14T06:28:59;9.50;99.90
16846;DHT22;8539;53.188;8.696;2023-03-14T06:31:30;9.50;99.90
16846;DHT22;8539;53.188;8.696;2023-03-14T06:33:56;9.50;99.90
16846;DHT22;8539;53.188;8.696;2023-03-14T06:36:23;9.50;99.90
16846;DHT22;8539;53.188;8.696;2023-03-14T06:38:49;9.60;99.90
16846;DHT22;8539;53.188;8.696;2023-03-14T06:41:15;9.60;99.90
16846;DHT22;8539;53.188;8.696;2023-03-14T06:43:42;9.60;99.90
16846;DHT22;8539;53.188;8.696;2023-03-14T06:46:08;9.60;99.90
16846;DHT22;8539;53.188;8.696;2023-03-14T06:48:34;9.60;99.90
16846;DHT22;8539;53.188;8.696;2023-03-14T06:51:01;9.60;99.90
16846;DHT22;8539;53.188;8.696;2023-03-14T06:53:27;9.60;99.90
16846;DHT22;8539;53.188;8.696;2023-03-14T06:55:53;9.60;99.90
16846;DHT22;8539;53.188;8.696;2023-03-14T06:58:19;9.60;99.90
16846;DHT22;8539;53.188;8.696;2023-03-14T07:00:45;9.60;99.90
16846;DHT22;8539;53.188;8.696;2023-03-14T07:03:13;9.50;99.90
16846;DHT22;8539;53.188;8.696;2023-03-14T07:05:40;9.60;99.90
16846;DHT22;8539;53.188;8.696;2023-03-14T07:08:08;9.60;99.90
16846;DHT22;8539;53.188;8.696;2023-03-14T07:10:35;9.60;99.90
16846;DHT22;8539;53.188;8.696;2023-03-14T07:13:01;9.70;99.90
16846;DHT22;8539;53.188;8.696;2023-03-14T07:15:27;9.70;99.90
16846;DHT22;8539;53.188;8.696;2023-03-14T07:17:54;9.70;99.90
16846;DHT22;8539;53.188;8.696;2023-03-14T07:20:20;9.80;99.90
16846;DHT22;8539;53.188;8.696;2023-03-14T07:22:49;9.80;99.90
16846;DHT22;8539;53.188;8.696;2023-03-14T07:25:16;9.80;99.90
16846;DHT22;8539;53.188;8.696;2023-03-14T07:27:44;9.90;99.90
16846;DHT22;8539;53.188;8.696;2023-03-14T07:30:11;9.90;99.90
16846;DHT22;8539;53.188;8.696;2023-03-14T07:32:37;9.90;99.90
16846;DHT22;8539;53.188;8.696;2023-03-14T07:35:07;10.00;99.90
16846;DHT22;8539;53.188;8.696;2023-03-14T07:37:33;10.20;99.90
16846;DHT22;8539;53.188;8.696;2023-03-14T07:40:00;10.00;99.90
16846;DHT22;8539;53.188;8.696;2023-03-14T07:42:26;10.00;99.90
16846;DHT22;8539;53.188;8.696;2023-03-14T07:44:52;10.10;99.90
16846;DHT22;8539;53.188;8.696;2023-03-14T07:47:19;10.10;99.90
16846;DHT22;8539;53.188;8.696;2023-03-14T07:49:45;10.20;99.90
16846;DHT22;8539;53.188;8.696;2023-03-14T07:52:12;10.10;99.90
16846;DHT22;8539;53.188;8.696;2023-03-14T07:54:38;10.10;99.90
16846;DHT22;8539;53.188;8.696;2023-03-14T07:57:05;10.20;99.90
16846;DHT22;8539;53.188;8.696;2023-03-14T07:59:31;10.20;99.90
16846;DHT22;8539;53.188;8.696;2023-03-14T08:01:57;10.10;99.90
16846;DHT22;8539;53.188;8.696;2023-03-14T08:04:24;10.20;99.90
16846;DHT22;8539;53.188;8.696;2023-03-14T08:06:50;10.10;99.90
16846;DHT22;8539;53.188;8.696;2023-03-14T08:09:17;10.10;99.90
16846;DHT22;8539;53.188;8.696;2023-03-14T08:11:43;10.00;99.90
16846;DHT22;8539;53.188;8.696;2023-03-14T08:14:09;10.00;99.90
16846;DHT22;8539;53.188;8.696;2023-03-14T08:16:36;9.90;99.90
16846;DHT22;8539;53.188;8.696;2023-03-14T08:19:02;9.90;99.90
16846;DHT22;8539;53.188;8.696;2023-03-14T08:21:29;9.90;99.90
16846;DHT22;8539;53.188;8.696;2023-03-14T08:23:55;9.80;99.90
16846;DHT22;8539;53.188;8.696;2023-03-14T08:26:21;9.80;99.90
16846;DHT22;8539;53.188;8.696;2023-03-14T08:28:47;9.80;99.90
16846;DHT22;8539;53.188;8.696;2023-03-14T08:31:14;9.40;99.90
16846;DHT22;8539;53.188;8.696;2023-03-14T08:33:40;9.80;99.90
16846;DHT22;8539;53.188;8.696;2023-03-14T08:36:06;9.80;99.90
16846;DHT22;8539;53.188;8.696;2023-03-14T08:38:33;9.80;99.90
16846;DHT22;8539;53.188;8.696;2023-03-14T08:41:00;9.80;99.90
16846;DHT22;8539;53.188;8.696;2023-03-14T08:43:27;9.70;99.90
16846;DHT22;8539;53.188;8.696;2023-03-14T08:45:57;9.70;99.90
16846;DHT22;8539;53.188;8.696;2023-03-14T08:48:24;9.70;99.90
16846;DHT22;8539;53.188;8.696;2023-03-14T08:50:50;9.70;99.90
16846;DHT22;8539;53.188;8.696;2023-03-14T08:53:17;9.70;99.90
16846;DHT22;8539;53.188;8.696;2023-03-14T08:55:43;9.60;99.90
16846;DHT22;8539;53.188;8.696;2023-03-14T08:58:10;9.60;99.90
16846;DHT22;8539;53.188;8.696;2023-03-14T09:00:36;9.50;99.90
16846;DHT22;8539;53.188;8.696;2023-03-14T09:03:02;9.00;99.90
16846;DHT22;8539;53.188;8.696;2023-03-14T09:05:28;8.40;99.90
16846;DHT22;8539;53.188;8.696;2023-03-14T09:07:54;7.90;99.90
16846;DHT22;8539;53.188;8.696;2023-03-14T09:10:20;7.50;99.90
16846;DHT22;8539;53.188;8.696;2023-03-14T09:12:47;7.20;99.90
16846;DHT22;8539;53.188;8.696;2023-03-14T09:15:13;6.90;99.90
16846;DHT22;8539;53.188;8.696;2023-03-14T09:17:41;6.80;99.90
16846;DHT22;8539;53.188;8.696;2023-03-14T09:20:08;6.60;99.90
16846;DHT22;8539;53.188;8.696;2023-03-14T09:22:35;6.40;99.90
16846;DHT22;8539;53.188;8.696;2023-03-14T09:25:03;6.30;99.90
16846;DHT22;8539;53.188;8.696;2023-03-14T09:27:29;6.10;99.90
16846;DHT22;8539;53.188;8.696;2023-03-14T09:29:55;6.10;99.90
16846;DHT22;8539;53.188;8.696;2023-03-14T09:32:21;5.90;99.90
16846;DHT22;8539;53.188;8.696;2023-03-14T09:34:47;5.60;99.90
16846;DHT22;8539;53.188;8.696;2023-03-14T09:37:13;5.40;99.90
16846;DHT22;8539;53.188;8.696;2023-03-14T09:39:42;5.20;99.90
16846;DHT22;8539;53.188;8.696;2023-03-14T09:42:13;5.00;99.90
16846;DHT22;8539;53.188;8.696;2023-03-14T09:44:50;4.90;99.90
16846;DHT22;8539;53.188;8.696;2023-03-14T09:47:18;4.70;99.90
16846;DHT22;8539;53.188;8.696;2023-03-14T09:49:45;4.60;99.90
16846;DHT22;8539;53.188;8.696;2023-03-14T09:52:28;4.50;99.90
16846;DHT22;8539;53.188;8.696;2023-03-14T09:55:03;4.30;99.90
16846;DHT22;8539;53.188;8.696;2023-03-14T09:57:32;4.10;99.90
16846;DHT22;8539;53.188;8.696;2023-03-14T10:02:41;4.00;99.90
16846;DHT22;8539;53.188;8.696;2023-03-14T10:05:15;4.00;99.90
16846;DHT22;8539;53.188;8.696;2023-03-14T10:07:41;4.00;99.90
16846;DHT22;8539;53.188;8.696;2023-03-14T10:10:20;4.00;99.90
16846;DHT22;8539;53.188;8.696;2023-03-14T10:12:49;4.00;99.90
16846;DHT22;8539;53.188;8.696;2023-03-14T10:15:26;4.00;99.90
16846;DHT22;8539;53.188;8.696;2023-03-14T10:17:53;4.00;99.90
16846;DHT22;8539;53.188;8.696;2023-03-14T10:20:34;4.10;99.90
16846;DHT22;8539;53.188;8.696;2023-03-14T10:25:42;4.20;99.90
16846;DHT22;8539;53.188;8.696;2023-03-14T10:31:15;4.30;99.90
16846;DHT22;8539;53.188;8.696;2023-03-14T10:33:41;4.30;99.90
16846;DHT22;8539;53.188;8.696;2023-03-14T10:38:46;4.30;99.90
16846;DHT22;8539;53.188;8.696;2023-03-14T10:41:25;4.30;99.90
16846;DHT22;8539;53.188;8.696;2023-03-14T10:43:55;4.30;99.90
16846;DHT22;8539;53.188;8.696;2023-03-14T10:46:24;4.40;99.90
16846;DHT22;8539;53.188;8.696;2023-03-14T10:48:51;4.40;99.90
16846;DHT22;8539;53.188;8.696;2023-03-14T10:51:19;4.40;99.90
16846;DHT22;8539;53.188;8.696;2023-03-14T10:53:59;4.40;99.90
16846;DHT22;8539;53.188;8.696;2023-03-14T10:56:27;4.40;99.90
16846;DHT22;8539;53.188;8.696;2023-03-14T10:58:57;4.40;99.90
16846;DHT22;8539;53.188;8.696;2023-03-14T11:07:19;4.50;99.90
16846;DHT22;8539;53.188;8.696;2023-03-14T11:12:49;4.60;99.90
16846;DHT22;8539;53.188;8.696;2023-03-14T11:15:30;4.70;99.90
16846;DHT22;8539;53.188;8.696;2023-03-14T11:26:33;5.10;99.90
16846;DHT22;8539;53.188;8.696;2023-03-14T11:29:21;5.10;99.90
16846;DHT22;8539;53.188;8.696;2023-03-14T11:31:49;5.30;99.90
16846;DHT22;8539;53.188;8.696;2023-03-14T11:34:29;5.40;99.90
16846;DHT22;8539;53.188;8.696;2023-03-14T11:37:04;5.40;99.90
16846;DHT22;8539;53.188;8.696;2023-03-14T11:39:59;5.60;99.90
16846;DHT22;8539;53.188;8.696;2023-03-14T11:42:27;5.70;99.90
16846;DHT22;8539;53.188;8.696;2023-03-14T11:44:55;5.90;99.90
16846;DHT22;8539;53.188;8.696;2023-03-14T11:47:33;6.00;99.90
16846;DHT22;8539;53.188;8.696;2023-03-14T11:50:24;5.90;99.90
16846;DHT22;8539;53.188;8.696;2023-03-14T11:52:54;5.90;99.90
16846;DHT22;8539;53.188;8.696;2023-03-14T11:55:36;6.00;99.90
16846;DHT22;8539;53.188;8.696;2023-03-14T11:58:34;5.90;99.90
16846;DHT22;8539;53.188;8.696;2023-03-14T12:01:08;6.10;99.90
16846;DHT22;8539;53.188;8.696;2023-03-14T12:03:45;6.20;99.90
16846;DHT22;8539;53.188;8.696;2023-03-14T12:06:48;6.20;99.90
16846;DHT22;8539;53.188;8.696;2023-03-14T12:09:15;6.30;99.90
16846;DHT22;8539;53.188;8.696;2023-03-14T12:11:56;6.30;99.90
16846;DHT22;8539;53.188;8.696;2023-03-14T12:19:31;6.00;99.90
16846;DHT22;8539;53.188;8.696;2023-03-14T12:22:01;6.00;99.90
16846;DHT22;8539;53.188;8.696;2023-03-14T12:24:36;6.00;99.90
16846;DHT22;8539;53.188;8.696;2023-03-14T12:27:05;6.00;99.90
16846;DHT22;8539;53.188;8.696;2023-03-14T12:29:32;6.10;99.90
16846;DHT22;8539;53.188;8.696;2023-03-14T12:32:28;6.30;99.90
16846;DHT22;8539;53.188;8.696;2023-03-14T12:34:55;6.40;99.90
16846;DHT22;8539;53.188;8.696;2023-03-14T12:37:36;6.40;99.90
16846;DHT22;8539;53.188;8.696;2023-03-14T12:40:32;6.40;99.90
16846;DHT22;8539;53.188;8.696;2023-03-14T12:43:04;6.30;99.90
16846;DHT22;8539;53.188;8.696;2023-03-14T12:45:35;6.50;99.90
16846;DHT22;8539;53.188;8.696;2023-03-14T12:48:21;6.30;99.90
16846;DHT22;8539;53.188;8.696;2023-03-14T12:50:55;6.30;99.90
16846;DHT22;8539;53.188;8.696;2023-03-14T12:56:34;6.20;99.90
16846;DHT22;8539;53.188;8.696;2023-03-14T13:01:36;6.50;99.90
16846;DHT22;8539;53.188;8.696;2023-03-14T13:04:10;6.60;99.90
16846;DHT22;8539;53.188;8.696;2023-03-14T13:12:14;6.60;99.90
16846;DHT22;8539;53.188;8.696;2023-03-14T13:14:48;6.50;99.90
16846;DHT22;8539;53.188;8.696;2023-03-14T13:17:52;6.40;99.90
16846;DHT22;8539;53.188;8.696;2023-03-14T13:20:32;6.20;99.90
16846;DHT22;8539;53.188;8.696;2023-03-14T13:23:00;6.20;99.90
16846;DHT22;8539;53.188;8.696;2023-03-14T13:25:31;6.20;99.90
16846;DHT22;8539;53.188;8.696;2023-03-14T13:27:58;6.20;99.90
16846;DHT22;8539;53.188;8.696;2023-03-14T13:30:35;6.30;99.90
16846;DHT22;8539;53.188;8.696;2023-03-14T13:33:04;6.10;99.90
16846;DHT22;8539;53.188;8.696;2023-03-14T13:35:40;6.10;99.90
16846;DHT22;8539;53.188;8.696;2023-03-14T13:38:25;6.20;99.90
16846;DHT22;8539;53.188;8.696;2023-03-14T13:40:54;6.00;99.90
16846;DHT22;8539;53.188;8.696;2023-03-14T13:43:33;6.10;99.90
16846;DHT22;8539;53.188;8.696;2023-03-14T13:48:35;6.60;99.90
16846;DHT22;8539;53.188;8.696;2023-03-14T13:51:07;6.70;99.90
16846;DHT22;8539;53.188;8.696;2023-03-14T13:56:13;7.00;99.90
16846;DHT22;8539;53.188;8.696;2023-03-14T13:58:40;7.30;99.90
16846;DHT22;8539;53.188;8.696;2023-03-14T14:03:39;7.80;99.90
16846;DHT22;8539;53.188;8.696;2023-03-14T14:06:44;7.90;99.90
16846;DHT22;8539;53.188;8.696;2023-03-14T14:11:52;7.60;99.90
16846;DHT22;8539;53.188;8.696;2023-03-14T14:14:55;7.30;99.90
16846;DHT22;8539;53.188;8.696;2023-03-14T14:17:16;7.10;99.90
16846;DHT22;8539;53.188;8.696;2023-03-14T14:19:44;6.90;99.90
16846;DHT22;8539;53.188;8.696;2023-03-14T14:22:11;6.80;99.90
16846;DHT22;8539;53.188;8.696;2023-03-14T14:24:38;6.70;99.90
16846;DHT22;8539;53.188;8.696;2023-03-14T14:29:40;6.70;99.90
16846;DHT22;8539;53.188;8.696;2023-03-14T14:35:06;6.70;99.90
16846;DHT22;8539;53.188;8.696;2023-03-14T14:37:34;6.80;99.90
16846;DHT22;8539;53.188;8.696;2023-03-14T14:40:24;7.00;99.90
16846;DHT22;8539;53.188;8.696;2023-03-14T14:42:51;7.20;99.90
16846;DHT22;8539;53.188;8.696;2023-03-14T14:45:20;7.20;99.90
16846;DHT22;8539;53.188;8.696;2023-03-14T14:52:59;6.90;99.90
16846;DHT22;8539;53.188;8.696;2023-03-14T14:55:32;6.80;99.90
16846;DHT22;8539;53.188;8.696;2023-03-14T14:58:18;6.80;99.90
16846;DHT22;8539;53.188;8.696;2023-03-14T15:00:52;6.80;99.90
16846;DHT22;8539;53.188;8.696;2023-03-14T15:03:19;6.80;99.90
16846;DHT22;8539;53.188;8.696;2023-03-14T15:05:44;6.90;99.90
16846;DHT22;8539;53.188;8.696;2023-03-14T15:08:12;6.90;99.90
16846;DHT22;8539;53.188;8.696;2023-03-14T15:10:38;6.80;99.90
16846;DHT22;8539;53.188;8.696;2023-03-14T15:13:04;6.70;99.90
16846;DHT22;8539;53.188;8.696;2023-03-14T15:15:31;6.70;99.90
16846;DHT22;8539;53.188;8.696;2023-03-14T15:17:57;6.60;99.90
16846;DHT22;8539;53.188;8.696;2023-03-14T15:20:23;6.60;99.90
16846;DHT22;8539;53.188;8.696;2023-03-14T15:22:50;6.60;99.90
16846;DHT22;8539;53.188;8.696;2023-03-14T15:25:20;6.60;99.90
16846;DHT22;8539;53.188;8.696;2023-03-14T15:27:47;6.50;99.90
16846;DHT22;8539;53.188;8.696;2023-03-14T15:30:13;6.30;99.90
16846;DHT22;8539;53.188;8.696;2023-03-14T15:32:40;6.20;99.90
16846;DHT22;8539;53.188;8.696;2023-03-14T15:35:07;6.30;99.90
16846;DHT22;8539;53.188;8.696;2023-03-14T15:37:34;6.30;99.90
16846;DHT22;8539;53.188;8.696;2023-03-14T15:40:01;6.40;99.90
16846;DHT22;8539;53.188;8.696;2023-03-14T15:42:30;6.50;99.90
16846;DHT22;8539;53.188;8.696;2023-03-14T15:44:56;6.70;99.90
16846;DHT22;8539;53.188;8.696;2023-03-14T15:47:22;6.70;99.90
16846;DHT22;8539;53.188;8.696;2023-03-14T15:49:48;6.70;99.90
16846;DHT22;8539;53.188;8.696;2023-03-14T15:52:14;6.70;99.90
16846;DHT22;8539;53.188;8.696;2023-03-14T15:54:40;6.80;99.90
16846;DHT22;8539;53.188;8.696;2023-03-14T15:57:10;6.70;99.90
16846;DHT22;8539;53.188;8.696;2023-03-14T15:59:36;6.70;99.90
16846;DHT22;8539;53.188;8.696;2023-03-14T16:02:02;6.60;99.90
16846;DHT22;8539;53.188;8.696;2023-03-14T16:04:28;6.50;99.90
16846;DHT22;8539;53.188;8.696;2023-03-14T16:06:54;6.30;99.90
16846;DHT22;8539;53.188;8.696;2023-03-14T16:09:20;6.20;99.90
16846;DHT22;8539;53.188;8.696;2023-03-14T16:11:47;6.10;99.90
16846;DHT22;8539;53.188;8.696;2023-03-14T16:14:13;6.00;99.90
16846;DHT22;8539;53.188;8.696;2023-03-14T16:16:39;6.00;99.90
16846;DHT22;8539;53.188;8.696;2023-03-14T16:19:06;5.90;99.90
16846;DHT22;8539;53.188;8.696;2023-03-14T16:21:32;5.80;99.90
16846;DHT22;8539;53.188;8.696;2023-03-14T16:23:59;5.70;99.90
16846;DHT22;8539;53.188;8.696;2023-03-14T16:26:25;5.80;99.90
16846;DHT22;8539;53.188;8.696;2023-03-14T16:28:51;5.70;99.90
16846;DHT22;8539;53.188;8.696;2023-03-14T16:31:18;5.60;99.90
16846;DHT22;8539;53.188;8.696;2023-03-14T16:33:47;5.50;99.90
16846;DHT22;8539;53.188;8.696;2023-03-14T16:36:13;5.60;99.90
16846;DHT22;8539;53.188;8.696;2023-03-14T16:38:42;5.50;99.90
16846;DHT22;8539;53.188;8.696;2023-03-14T16:41:11;5.50;99.90
16846;DHT22;8539;53.188;8.696;2023-03-14T16:43:38;5.50;99.90
16846;DHT22;8539;53.188;8.696;2023-03-14T16:46:13;5.40;99.90
16846;DHT22;8539;53.188;8.696;2023-03-14T16:48:39;5.30;99.90
16846;DHT22;8539;53.188;8.696;2023-03-14T16:51:05;5.20;99.90
16846;DHT22;8539;53.188;8.696;2023-03-14T16:53:31;5.10;99.90
16846;DHT22;8539;53.188;8.696;2023-03-14T16:55:58;5.10;99.90
16846;DHT22;8539;53.188;8.696;2023-03-14T16:58:25;5.00;99.90
16846;DHT22;8539;53.188;8.696;2023-03-14T17:00:51;4.80;99.90
16846;DHT22;8539;53.188;8.696;2023-03-14T17:03:18;4.40;99.90
16846;DHT22;8539;53.188;8.696;2023-03-14T17:05:49;4.20;99.90
16846;DHT22;8539;53.188;8.696;2023-03-14T17:08:16;4.10;99.90
16846;DHT22;8539;53.188;8.696;2023-03-14T17:10:44;4.10;99.90
16846;DHT22;8539;53.188;8.696;2023-03-14T17:13:11;3.90;99.90
16846;DHT22;8539;53.188;8.696;2023-03-14T17:15:37;3.90;99.90
16846;DHT22;8539;53.188;8.696;2023-03-14T17:18:04;3.80;99.90